sensor_id;sensor_type;location;lat;lon;timestamp;temperature;humidity
6956;DHT22;50345;51.136;16.886;2022-08-07T00:00:33;15.60;99.90
6956;DHT22;50345;51.136;16.886;2022-08-07T00:02:59;15.60;99.90
6956;DHT22;50345;51.136;16.886;2022-08-07T00:05:25;15.60;99.90
6956;DHT22;50345;51.136;16.886;2022-08-07T00:07:52;15.50;99.90
6956;DHT22;50345;51.136;16.886;2022-08-07T00:10:17;15.50;99.90
6956;DHT22;50345;51.136;16.886;2022-08-07T00:12:43;15.50;99.90
6956;DHT22;50345;51.136;16.886;2022-08-07T00:15:09;15.50;99.90
6956;DHT22;50345;51.136;16.886;2022-08-07T00:17:35;15.50;99.90
6956;DHT22;50345;51.136;16.886;2022-08-07T00:20:02;15.40;99.90
6956;DHT22;50345;51.136;16.886;2022-08-07T00:22:28;15.40;99.90
6956;DHT22;50345;51.136;16.886;2022-08-07T00:24:54;15.40;99.90
6956;DHT22;50345;51.136;16.886;2022-08-07T00:27:19;15.40;99.90
6956;DHT22;50345;51.136;16.886;2022-08-07T00:29:45;15.30;99.90
6956;DHT22;50345;51.136;16.886;2022-08-07T00:34:38;15.30;99.90
6956;DHT22;50345;51.136;16.886;2022-08-07T00:37:04;15.30;99.90
6956;DHT22;50345;51.136;16.886;2022-08-07T00:39:29;15.30;99.90
6956;DHT22;50345;51.136;16.886;2022-08-07T00:41:57;15.30;99.90
6956;DHT22;50345;51.136;16.886;2022-08-07T00:44:23;15.20;99.90
6956;DHT22;50345;51.136;16.886;2022-08-07T00:46:49;15.20;99.90
6956;DHT22;50345;51.136;16.886;2022-08-07T00:49:15;15.20;99.90
6956;DHT22;50345;51.136;16.886;2022-08-07T00:51:41;15.20;99.90
6956;DHT22;50345;51.136;16.886;2022-08-07T00:54:07;15.20;99.90
6956;DHT22;50345;51.136;16.886;2022-08-07T00:56:34;15.20;99.90
6956;DHT22;50345;51.136;16.886;2022-08-07T00:59:00;15.20;99.90
6956;DHT22;50345;51.136;16.886;2022-08-07T01:01:26;15.20;99.90
6956;DHT22;50345;51.136;16.886;2022-08-07T01:03:52;15.10;99.90
6956;DHT22;50345;51.136;16.886;2022-08-07T01:06:18;15.10;99.90
6956;DHT22;50345;51.136;16.886;2022-08-07T01:08:45;15.10;99.90
6956;DHT22;50345;51.136;16.886;2022-08-07T01:11:12;15.10;99.90
6956;DHT22;50345;51.136;16.886;2022-08-07T01:13:38;15.10;99.90
6956;DHT22;50345;51.136;16.886;2022-08-07T01:18:31;15.00;99.90
6956;DHT22;50345;51.136;16.886;2022-08-07T01:21:14;15.00;99.90
6956;DHT22;50345;51.136;16.886;2022-08-07T01:23:43;15.00;99.90
6956;DHT22;50345;51.136;16.886;2022-08-07T01:26:10;14.90;99.90
6956;DHT22;50345;51.136;16.886;2022-08-07T01:28:41;14.90;99.90
6956;DHT22;50345;51.136;16.886;2022-08-07T01:31:08;14.90;99.90
6956;DHT22;50345;51.136;16.886;2022-08-07T01:33:34;14.90;99.90
6956;DHT22;50345;51.136;16.886;2022-08-07T01:36:00;14.90;99.90
6956;DHT22;50345;51.136;16.886;2022-08-07T01:38:28;14.80;99.90
6956;DHT22;50345;51.136;16.886;2022-08-07T01:40:58;14.80;99.90
6956;DHT22;50345;51.136;16.886;2022-08-07T01:43:25;14.80;99.90
6956;DHT22;50345;51.136;16.886;2022-08-07T01:45:52;14.80;99.90
6956;DHT22;50345;51.136;16.886;2022-08-07T01:48:18;14.70;99.90
6956;DHT22;50345;51.136;16.886;2022-08-07T01:50:59;14.70;99.90
6956;DHT22;50345;51.136;16.886;2022-08-07T01:53:27;14.70;99.90
6956;DHT22;50345;51.136;16.886;2022-08-07T01:55:57;14.70;99.90
6956;DHT22;50345;51.136;16.886;2022-08-07T01:58:29;14.70;99.90
6956;DHT22;50345;51.136;16.886;2022-08-07T02:01:02;14.70;99.90
6956;DHT22;50345;51.136;16.886;2022-08-07T02:03:29;14.60;99.90
6956;DHT22;50345;51.136;16.886;2022-08-07T02:06:01;14.60;99.90
6956;DHT22;50345;51.136;16.886;2022-08-07T02:08:29;14.60;99.90
6956;DHT22;50345;51.136;16.886;2022-08-07T02:10:57;14.50;99.90
6956;DHT22;50345;51.136;16.886;2022-08-07T02:13:26;14.50;99.90
6956;DHT22;50345;51.136;16.886;2022-08-07T02:15:53;14.50;99.90
6956;DHT22;50345;51.136;16.886;2022-08-07T02:18:21;14.40;99.90
6956;DHT22;50345;51.136;16.886;2022-08-07T02:20:50;14.40;99.90
6956;DHT22;50345;51.136;16.886;2022-08-07T02:23:17;14.40;99.90
6956;DHT22;50345;51.136;16.886;2022-08-07T02:25:43;14.40;99.90
6956;DHT22;50345;51.136;16.886;2022-08-07T02:28:10;14.30;99.90
6956;DHT22;50345;51.136;16.886;2022-08-07T02:30:37;14.30;99.90
6956;DHT22;50345;51.136;16.886;2022-08-07T02:33:04;14.30;99.90
6956;DHT22;50345;51.136;16.886;2022-08-07T02:35:32;14.20;99.90
6956;DHT22;50345;51.136;16.886;2022-08-07T02:38:00;14.20;99.90
6956;DHT22;50345;51.136;16.886;2022-08-07T02:40:28;14.20;99.90
6956;DHT22;50345;51.136;16.886;2022-08-07T02:42:56;14.10;99.90
6956;DHT22;50345;51.136;16.886;2022-08-07T02:45:25;14.10;99.90
6956;DHT22;50345;51.136;16.886;2022-08-07T02:47:51;14.00;99.90
6956;DHT22;50345;51.136;16.886;2022-08-07T02:50:17;14.00;99.90
6956;DHT22;50345;51.136;16.886;2022-08-07T02:55:22;13.90;99.90
6956;DHT22;50345;51.136;16.886;2022-08-07T02:57:49;13.80;99.90
6956;DHT22;50345;51.136;16.886;2022-08-07T03:00:15;13.70;99.90
6956;DHT22;50345;51.136;16.886;2022-08-07T03:02:44;13.70;99.90
6956;DHT22;50345;51.136;16.886;2022-08-07T03:05:11;13.70;99.90
6956;DHT22;50345;51.136;16.886;2022-08-07T03:07:38;13.60;99.90
6956;DHT22;50345;51.136;16.886;2022-08-07T03:10:05;13.60;99.90
6956;DHT22;50345;51.136;16.886;2022-08-07T03:14:59;13.60;99.90
6956;DHT22;50345;51.136;16.886;2022-08-07T03:17:26;13.50;99.90
6956;DHT22;50345;51.136;16.886;2022-08-07T03:19:52;13.50;99.90
6956;DHT22;50345;51.136;16.886;2022-08-07T03:22:19;13.50;99.90
6956;DHT22;50345;51.136;16.886;2022-08-07T03:24:46;13.50;99.90
6956;DHT22;50345;51.136;16.886;2022-08-07T03:27:12;13.40;99.90
6956;DHT22;50345;51.136;16.886;2022-08-07T03:29:48;13.40;99.90
6956;DHT22;50345;51.136;16.886;2022-08-07T03:32:16;13.40;99.90
6956;DHT22;50345;51.136;16.886;2022-08-07T03:34:45;13.40;99.90
6956;DHT22;50345;51.136;16.886;2022-08-07T03:37:11;13.30;99.90
6956;DHT22;50345;51.136;16.886;2022-08-07T03:39:38;13.30;99.90
6956;DHT22;50345;51.136;16.886;2022-08-07T03:42:05;13.30;99.90
6956;DHT22;50345;51.136;16.886;2022-08-07T03:44:33;13.20;99.90
6956;DHT22;50345;51.136;16.886;2022-08-07T03:47:01;13.20;99.90
6956;DHT22;50345;51.136;16.886;2022-08-07T03:49:27;13.20;99.90
6956;DHT22;50345;51.136;16.886;2022-08-07T03:51:54;13.10;99.90
6956;DHT22;50345;51.136;16.886;2022-08-07T03:54:21;13.10;99.90
6956;DHT22;50345;51.136;16.886;2022-08-07T03:56:47;13.10;99.90
6956;DHT22;50345;51.136;16.886;2022-08-07T03:59:14;13.10;99.90
6956;DHT22;50345;51.136;16.886;2022-08-07T04:01:41;13.10;99.90
6956;DHT22;50345;51.136;16.886;2022-08-07T04:04:07;13.10;99.90
6956;DHT22;50345;51.136;16.886;2022-08-07T04:06:34;13.10;99.90
6956;DHT22;50345;51.136;16.886;2022-08-07T04:09:01;13.10;99.90
6956;DHT22;50345;51.136;16.886;2022-08-07T04:11:27;13.20;99.90
6956;DHT22;50345;51.136;16.886;2022-08-07T04:13:54;13.20;99.90
6956;DHT22;50345;51.136;16.886;2022-08-07T04:16:20;13.20;99.90
6956;DHT22;50345;51.136;16.886;2022-08-07T04:18:46;13.20;99.90
6956;DHT22;50345;51.136;16.886;2022-08-07T04:21:12;13.20;99.90
6956;DHT22;50345;51.136;16.886;2022-08-07T04:23:39;13.30;99.90
6956;DHT22;50345;51.136;16.886;2022-08-07T04:26:06;13.30;99.90
6956;DHT22;50345;51.136;16.886;2022-08-07T04:28:31;13.40;99.90
6956;DHT22;50345;51.136;16.886;2022-08-07T04:30:57;13.40;99.90
6956;DHT22;50345;51.136;16.886;2022-08-07T04:33:24;13.40;99.90
6956;DHT22;50345;51.136;16.886;2022-08-07T04:35:50;13.50;99.90
6956;DHT22;50345;51.136;16.886;2022-08-07T04:38:16;13.50;99.90
6956;DHT22;50345;51.136;16.886;2022-08-07T04:40:43;13.60;99.90
6956;DHT22;50345;51.136;16.886;2022-08-07T04:43:10;13.60;99.90
6956;DHT22;50345;51.136;16.886;2022-08-07T04:45:57;13.70;99.90
6956;DHT22;50345;51.136;16.886;2022-08-07T04:48:53;13.70;99.90
6956;DHT22;50345;51.136;16.886;2022-08-07T04:54:02;13.90;99.90
6956;DHT22;50345;51.136;16.886;2022-08-07T04:56:48;13.90;99.90
6956;DHT22;50345;51.136;16.886;2022-08-07T04:59:34;14.00;99.90
6956;DHT22;50345;51.136;16.886;2022-08-07T05:02:06;14.10;99.90
6956;DHT22;50345;51.136;16.886;2022-08-07T05:07:17;14.20;99.90
6956;DHT22;50345;51.136;16.886;2022-08-07T05:12:35;14.40;99.90
6956;DHT22;50345;51.136;16.886;2022-08-07T05:15:15;14.40;99.90
6956;DHT22;50345;51.136;16.886;2022-08-07T05:17:48;14.50;99.90
6956;DHT22;50345;51.136;16.886;2022-08-07T05:22:46;14.70;99.90
6956;DHT22;50345;51.136;16.886;2022-08-07T05:25:15;14.80;99.90
6956;DHT22;50345;51.136;16.886;2022-08-07T05:27:43;14.80;99.90
6956;DHT22;50345;51.136;16.886;2022-08-07T05:30:10;14.90;99.90
6956;DHT22;50345;51.136;16.886;2022-08-07T05:32:37;15.00;99.90
6956;DHT22;50345;51.136;16.886;2022-08-07T05:35:05;15.10;99.90
6956;DHT22;50345;51.136;16.886;2022-08-07T05:37:32;15.10;99.90
6956;DHT22;50345;51.136;16.886;2022-08-07T05:39:58;15.20;99.90
6956;DHT22;50345;51.136;16.886;2022-08-07T05:42:25;15.30;99.90
6956;DHT22;50345;51.136;16.886;2022-08-07T05:44:51;15.30;99.90
6956;DHT22;50345;51.136;16.886;2022-08-07T05:47:18;15.40;99.90
6956;DHT22;50345;51.136;16.886;2022-08-07T05:52:17;15.50;99.90
6956;DHT22;50345;51.136;16.886;2022-08-07T05:54:44;15.60;99.90
6956;DHT22;50345;51.136;16.886;2022-08-07T05:57:09;15.60;99.90
6956;DHT22;50345;51.136;16.886;2022-08-07T05:59:37;15.70;99.90
6956;DHT22;50345;51.136;16.886;2022-08-07T06:02:05;15.80;99.90
6956;DHT22;50345;51.136;16.886;2022-08-07T06:04:34;15.90;99.90
6956;DHT22;50345;51.136;16.886;2022-08-07T06:07:02;15.90;99.90
6956;DHT22;50345;51.136;16.886;2022-08-07T06:09:31;16.00;99.90
6956;DHT22;50345;51.136;16.886;2022-08-07T06:11:57;16.00;99.90
6956;DHT22;50345;51.136;16.886;2022-08-07T06:14:23;16.10;99.90
6956;DHT22;50345;51.136;16.886;2022-08-07T06:16:50;16.20;99.90
6956;DHT22;50345;51.136;16.886;2022-08-07T06:19:17;16.30;99.90
6956;DHT22;50345;51.136;16.886;2022-08-07T06:21:43;16.40;99.90
6956;DHT22;50345;51.136;16.886;2022-08-07T06:24:10;16.40;99.90
6956;DHT22;50345;51.136;16.886;2022-08-07T06:26:38;16.60;99.90
6956;DHT22;50345;51.136;16.886;2022-08-07T06:29:04;16.70;99.90
6956;DHT22;50345;51.136;16.886;2022-08-07T06:31:30;16.70;99.90
6956;DHT22;50345;51.136;16.886;2022-08-07T06:33:55;16.80;99.90
6956;DHT22;50345;51.136;16.886;2022-08-07T06:36:21;16.90;99.90
6956;DHT22;50345;51.136;16.886;2022-08-07T06:38:47;17.00;99.90
6956;DHT22;50345;51.136;16.886;2022-08-07T06:41:18;17.00;99.90
6956;DHT22;50345;51.136;16.886;2022-08-07T06:43:46;17.10;99.90
6956;DHT22;50345;51.136;16.886;2022-08-07T06:46:14;17.20;99.90
6956;DHT22;50345;51.136;16.886;2022-08-07T06:48:40;17.30;99.90
6956;DHT22;50345;51.136;16.886;2022-08-07T06:51:08;17.40;99.90
6956;DHT22;50345;51.136;16.886;2022-08-07T06:53:36;17.50;99.90
6956;DHT22;50345;51.136;16.886;2022-08-07T06:58:33;17.70;99.90
6956;DHT22;50345;51.136;16.886;2022-08-07T07:01:02;17.80;99.90
6956;DHT22;50345;51.136;16.886;2022-08-07T07:03:28;17.90;99.90
6956;DHT22;50345;51.136;16.886;2022-08-07T07:05:54;18.00;99.90
6956;DHT22;50345;51.136;16.886;2022-08-07T07:08:27;18.10;99.90
6956;DHT22;50345;51.136;16.886;2022-08-07T07:10:53;18.20;99.90
6956;DHT22;50345;51.136;16.886;2022-08-07T07:13:35;18.40;99.90
6956;DHT22;50345;51.136;16.886;2022-08-07T07:16:09;18.50;99.90
6956;DHT22;50345;51.136;16.886;2022-08-07T07:18:47;18.60;99.90
6956;DHT22;50345;51.136;16.886;2022-08-07T07:23:42;18.80;99.90
6956;DHT22;50345;51.136;16.886;2022-08-07T07:26:11;18.90;99.90
6956;DHT22;50345;51.136;16.886;2022-08-07T07:28:42;19.00;99.90
6956;DHT22;50345;51.136;16.886;2022-08-07T07:33:40;19.30;99.90
6956;DHT22;50345;51.136;16.886;2022-08-07T07:38:34;19.60;99.90
6956;DHT22;50345;51.136;16.886;2022-08-07T07:41:04;19.80;99.90
6956;DHT22;50345;51.136;16.886;2022-08-07T07:45:59;20.00;99.90
6956;DHT22;50345;51.136;16.886;2022-08-07T07:48:26;20.10;99.90
6956;DHT22;50345;51.136;16.886;2022-08-07T07:53:21;20.30;99.90
6956;DHT22;50345;51.136;16.886;2022-08-07T07:58:14;20.50;99.90
6956;DHT22;50345;51.136;16.886;2022-08-07T08:00:41;20.60;99.90
6956;DHT22;50345;51.136;16.886;2022-08-07T08:03:10;20.70;99.90
6956;DHT22;50345;51.136;16.886;2022-08-07T08:05:38;20.80;99.90
6956;DHT22;50345;51.136;16.886;2022-08-07T08:10:31;21.10;99.90
6956;DHT22;50345;51.136;16.886;2022-08-07T08:15:28;21.30;99.90
6956;DHT22;50345;51.136;16.886;2022-08-07T08:17:56;21.30;99.90
6956;DHT22;50345;51.136;16.886;2022-08-07T08:22:51;21.50;99.40
6956;DHT22;50345;51.136;16.886;2022-08-07T08:25:38;21.60;97.40
6956;DHT22;50345;51.136;16.886;2022-08-07T08:28:24;21.80;95.30
6956;DHT22;50345;51.136;16.886;2022-08-07T08:51:04;23.50;71.50
6956;DHT22;50345;51.136;16.886;2022-08-07T08:53:55;23.70;70.50
6956;DHT22;50345;51.136;16.886;2022-08-07T08:56:43;23.90;71.30
6956;DHT22;50345;51.136;16.886;2022-08-07T09:05:21;24.30;63.20
6956;DHT22;50345;51.136;16.886;2022-08-07T09:08:16;24.50;61.80
6956;DHT22;50345;51.136;16.886;2022-08-07T09:10:51;24.60;59.00
6956;DHT22;50345;51.136;16.886;2022-08-07T09:29:16;26.80;50.20
6956;DHT22;50345;51.136;16.886;2022-08-07T09:36:59;28.90;42.40
6956;DHT22;50345;51.136;16.886;2022-08-07T14:25:43;44.30;20.70
6956;DHT22;50345;51.136;16.886;2022-08-07T14:28:13;44.40;21.80
6956;DHT22;50345;51.136;16.886;2022-08-07T14:30:45;44.70;23.80
6956;DHT22;50345;51.136;16.886;2022-08-07T14:33:11;45.00;25.10
6956;DHT22;50345;51.136;16.886;2022-08-07T14:35:41;45.10;20.10
6956;DHT22;50345;51.136;16.886;2022-08-07T14:38:07;45.30;20.50
6956;DHT22;50345;51.136;16.886;2022-08-07T14:40:34;45.30;20.40
6956;DHT22;50345;51.136;16.886;2022-08-07T14:43:07;45.50;19.70
6956;DHT22;50345;51.136;16.886;2022-08-07T14:45:41;45.40;19.40
6956;DHT22;50345;51.136;16.886;2022-08-07T14:48:08;45.40;19.50
6956;DHT22;50345;51.136;16.886;2022-08-07T14:50:50;45.40;19.90
6956;DHT22;50345;51.136;16.886;2022-08-07T14:53:19;45.40;19.90
6956;DHT22;50345;51.136;16.886;2022-08-07T14:55:46;45.40;19.40
6956;DHT22;50345;51.136;16.886;2022-08-07T14:58:13;45.30;19.40
6956;DHT22;50345;51.136;16.886;2022-08-07T15:00:42;45.50;19.40
6956;DHT22;50345;51.136;16.886;2022-08-07T15:03:09;45.50;19.20
6956;DHT22;50345;51.136;16.886;2022-08-07T15:05:37;45.50;19.00
6956;DHT22;50345;51.136;16.886;2022-08-07T15:08:05;45.50;18.50
6956;DHT22;50345;51.136;16.886;2022-08-07T15:10:35;45.20;18.50
6956;DHT22;50345;51.136;16.886;2022-08-07T15:13:04;45.00;19.10
6956;DHT22;50345;51.136;16.886;2022-08-07T15:15:34;44.70;19.70
6956;DHT22;50345;51.136;16.886;2022-08-07T15:18:06;44.60;19.80
6956;DHT22;50345;51.136;16.886;2022-08-07T15:20:35;44.40;20.20
6956;DHT22;50345;51.136;16.886;2022-08-07T15:23:02;44.40;20.40
6956;DHT22;50345;51.136;16.886;2022-08-07T15:25:34;44.20;20.30
6956;DHT22;50345;51.136;16.886;2022-08-07T15:28:04;44.00;20.30
6956;DHT22;50345;51.136;16.886;2022-08-07T15:30:32;43.80;20.50
6956;DHT22;50345;51.136;16.886;2022-08-07T15:32:59;43.50;20.50
6956;DHT22;50345;51.136;16.886;2022-08-07T17:32:24;28.10;41.30
6956;DHT22;50345;51.136;16.886;2022-08-07T17:34:53;26.10;58.10
6956;DHT22;50345;51.136;16.886;2022-08-07T17:40:01;25.70;58.80
6956;DHT22;50345;51.136;16.886;2022-08-07T17:42:39;25.50;48.10
6956;DHT22;50345;51.136;16.886;2022-08-07T17:45:11;25.30;43.50
6956;DHT22;50345;51.136;16.886;2022-08-07T17:47:58;25.10;40.80
6956;DHT22;50345;51.136;16.886;2022-08-07T17:53:46;24.60;43.80
6956;DHT22;50345;51.136;16.886;2022-08-07T17:56:21;24.40;45.80
6956;DHT22;50345;51.136;16.886;2022-08-07T17:58:58;24.20;42.50
6956;DHT22;50345;51.136;16.886;2022-08-07T18:01:34;24.10;42.20
6956;DHT22;50345;51.136;16.886;2022-08-07T18:04:27;23.90;42.00
6956;DHT22;50345;51.136;16.886;2022-08-07T18:07:11;23.80;43.80
6956;DHT22;50345;51.136;16.886;2022-08-07T18:09:40;23.70;43.10
6956;DHT22;50345;51.136;16.886;2022-08-07T18:12:16;23.60;44.60
6956;DHT22;50345;51.136;16.886;2022-08-07T18:14:58;23.40;44.50
6956;DHT22;50345;51.136;16.886;2022-08-07T18:17:50;23.30;45.40
6956;DHT22;50345;51.136;16.886;2022-08-07T18:20:25;23.10;46.30
6956;DHT22;50345;51.136;16.886;2022-08-07T18:23:01;23.00;46.10
6956;DHT22;50345;51.136;16.886;2022-08-07T18:25:31;22.90;46.70
6956;DHT22;50345;51.136;16.886;2022-08-07T18:47:45;22.00;49.50
6956;DHT22;50345;51.136;16.886;2022-08-07T18:50:26;21.90;50.20
6956;DHT22;50345;51.136;16.886;2022-08-07T19:01:45;21.50;52.20
6956;DHT22;50345;51.136;16.886;2022-08-07T19:04:25;21.40;52.40
6956;DHT22;50345;51.136;16.886;2022-08-07T19:07:04;21.20;52.90
6956;DHT22;50345;51.136;16.886;2022-08-07T19:09:55;21.10;54.00
6956;DHT22;50345;51.136;16.886;2022-08-07T19:15:16;20.90;53.60
6956;DHT22;50345;51.136;16.886;2022-08-07T19:23:47;20.70;55.20
6956;DHT22;50345;51.136;16.886;2022-08-07T19:26:15;20.60;52.80
6956;DHT22;50345;51.136;16.886;2022-08-07T19:28:49;20.50;57.70
6956;DHT22;50345;51.136;16.886;2022-08-07T19:31:29;20.40;57.00
6956;DHT22;50345;51.136;16.886;2022-08-07T19:33:59;20.40;58.60
6956;DHT22;50345;51.136;16.886;2022-08-07T19:36:28;20.30;58.30
6956;DHT22;50345;51.136;16.886;2022-08-07T19:38:57;20.20;58.40
6956;DHT22;50345;51.136;16.886;2022-08-07T19:41:27;20.10;58.50
6956;DHT22;50345;51.136;16.886;2022-08-07T19:43:58;20.00;59.10
6956;DHT22;50345;51.136;16.886;2022-08-07T19:46:37;19.90;59.50
6956;DHT22;50345;51.136;16.886;2022-08-07T19:49:10;19.90;59.50
6956;DHT22;50345;51.136;16.886;2022-08-07T19:51:37;19.80;55.80
6956;DHT22;50345;51.136;16.886;2022-08-07T19:54:05;19.80;60.10
6956;DHT22;50345;51.136;16.886;2022-08-07T19:56:40;19.70;62.40
6956;DHT22;50345;51.136;16.886;2022-08-07T19:59:23;19.60;60.90
6956;DHT22;50345;51.136;16.886;2022-08-07T20:01:51;19.50;56.60
6956;DHT22;50345;51.136;16.886;2022-08-07T20:04:20;19.40;56.90
6956;DHT22;50345;51.136;16.886;2022-08-07T20:06:49;19.30;57.10
6956;DHT22;50345;51.136;16.886;2022-08-07T20:09:16;19.30;57.40
6956;DHT22;50345;51.136;16.886;2022-08-07T20:11:44;19.20;57.70
6956;DHT22;50345;51.136;16.886;2022-08-07T20:14:25;19.10;58.00
6956;DHT22;50345;51.136;16.886;2022-08-07T20:16:55;19.00;64.20
6956;DHT22;50345;51.136;16.886;2022-08-07T20:19:21;19.00;64.40
6956;DHT22;50345;51.136;16.886;2022-08-07T20:21:50;18.90;63.90
6956;DHT22;50345;51.136;16.886;2022-08-07T20:24:30;18.80;67.70
6956;DHT22;50345;51.136;16.886;2022-08-07T20:27:02;18.70;68.10
6956;DHT22;50345;51.136;16.886;2022-08-07T20:29:34;18.70;71.30
6956;DHT22;50345;51.136;16.886;2022-08-07T20:32:02;18.60;71.10
6956;DHT22;50345;51.136;16.886;2022-08-07T20:34:32;18.50;72.40
6956;DHT22;50345;51.136;16.886;2022-08-07T20:36:59;18.40;76.40
6956;DHT22;50345;51.136;16.886;2022-08-07T20:39:31;18.40;77.60
6956;DHT22;50345;51.136;16.886;2022-08-07T20:41:59;18.30;69.70
6956;DHT22;50345;51.136;16.886;2022-08-07T20:44:32;18.30;82.30
6956;DHT22;50345;51.136;16.886;2022-08-07T20:47:03;18.20;71.30
6956;DHT22;50345;51.136;16.886;2022-08-07T20:49:32;18.20;73.80
6956;DHT22;50345;51.136;16.886;2022-08-07T20:51:58;18.10;76.20
6956;DHT22;50345;51.136;16.886;2022-08-07T20:54:26;18.10;94.90
6956;DHT22;50345;51.136;16.886;2022-08-07T20:56:56;18.00;90.80
6956;DHT22;50345;51.136;16.886;2022-08-07T20:59:26;18.00;85.20
6956;DHT22;50345;51.136;16.886;2022-08-07T21:01:54;17.90;88.10
6956;DHT22;50345;51.136;16.886;2022-08-07T21:04:25;17.90;90.70
6956;DHT22;50345;51.136;16.886;2022-08-07T21:06:55;17.80;92.30
6956;DHT22;50345;51.136;16.886;2022-08-07T21:09:29;17.80;94.10
6956;DHT22;50345;51.136;16.886;2022-08-07T21:12:01;17.70;95.80
6956;DHT22;50345;51.136;16.886;2022-08-07T21:14:30;17.70;97.50
6956;DHT22;50345;51.136;16.886;2022-08-07T21:17:08;17.70;98.80
6956;DHT22;50345;51.136;16.886;2022-08-07T21:19:34;17.70;99.90
6956;DHT22;50345;51.136;16.886;2022-08-07T21:22:05;17.60;99.90
6956;DHT22;50345;51.136;16.886;2022-08-07T21:24:33;17.60;99.90
6956;DHT22;50345;51.136;16.886;2022-08-07T21:27:00;17.60;99.90
6956;DHT22;50345;51.136;16.886;2022-08-07T21:29:30;17.50;99.90
6956;DHT22;50345;51.136;16.886;2022-08-07T21:32:10;17.40;99.90
6956;DHT22;50345;51.136;16.886;2022-08-07T21:34:41;17.40;99.90
6956;DHT22;50345;51.136;16.886;2022-08-07T21:37:17;17.30;99.90
6956;DHT22;50345;51.136;16.886;2022-08-07T21:40:06;17.40;99.90
6956;DHT22;50345;51.136;16.886;2022-08-07T21:42:55;17.30;99.90
6956;DHT22;50345;51.136;16.886;2022-08-07T21:48:21;17.20;99.90
6956;DHT22;50345;51.136;16.886;2022-08-07T21:53:37;17.10;99.90
6956;DHT22;50345;51.136;16.886;2022-08-07T21:56:16;17.00;99.90
6956;DHT22;50345;51.136;16.886;2022-08-07T21:59:05;17.00;99.90
6956;DHT22;50345;51.136;16.886;2022-08-07T22:01:52;16.90;99.90
6956;DHT22;50345;51.136;16.886;2022-08-07T22:04:24;16.90;99.90
6956;DHT22;50345;51.136;16.886;2022-08-07T22:09:50;16.80;99.90
6956;DHT22;50345;51.136;16.886;2022-08-07T22:12:31;16.80;99.90
6956;DHT22;50345;51.136;16.886;2022-08-07T22:15:23;16.80;99.90
6956;DHT22;50345;51.136;16.886;2022-08-07T22:18:03;16.80;99.90
6956;DHT22;50345;51.136;16.886;2022-08-07T22:20:57;16.70;99.90
6956;DHT22;50345;51.136;16.886;2022-08-07T22:26:22;16.70;99.90
6956;DHT22;50345;51.136;16.886;2022-08-07T22:31:44;16.60;99.90
6956;DHT22;50345;51.136;16.886;2022-08-07T22:34:22;16.60;99.90
6956;DHT22;50345;51.136;16.886;2022-08-07T22:39:58;16.60;99.90
6956;DHT22;50345;51.136;16.886;2022-08-07T22:42:28;16.50;99.90
6956;DHT22;50345;51.136;16.886;2022-08-07T22:44:57;16.50;99.90
6956;DHT22;50345;51.136;16.886;2022-08-07T22:50:22;16.40;99.90
6956;DHT22;50345;51.136;16.886;2022-08-07T23:22:57;15.90;99.90
6956;DHT22;50345;51.136;16.886;2022-08-07T23:28:40;15.80;99.90
6956;DHT22;50345;51.136;16.886;2022-08-07T23:39:14;15.70;99.90
6956;DHT22;50345;51.136;16.886;2022-08-07T23:42:18;15.70;99.90
6956;DHT22;50345;51.136;16.886;2022-08-07T23:45:14;15.60;99.90
